createdAt,value
2018-04-13T07:19:01.809Z,960.62
2018-04-13T07:20:01.832Z,960.62
2018-04-13T07:21:01.879Z,960.65
2018-04-13T07:22:01.929Z,960.63
2018-04-13T07:23:02.004Z,960.65
2018-04-13T07:24:02.062Z,960.65
2018-04-13T07:25:02.102Z,960.71
2018-04-13T07:26:02.135Z,960.70
2018-04-13T07:27:02.190Z,960.71
2018-04-13T07:28:02.231Z,960.75
2018-04-13T07:29:02.314Z,960.75
2018-04-13T07:30:02.334Z,960.75
2018-04-13T07:31:02.389Z,960.80
2018-04-13T07:32:02.435Z,960.80
2018-04-13T07:33:02.488Z,960.84
2018-04-13T07:34:02.576Z,960.82
2018-04-13T07:35:02.589Z,960.78
2018-04-13T07:36:02.645Z,960.83
2018-04-13T07:37:02.689Z,960.86
2018-04-13T07:38:02.744Z,960.87
2018-04-13T07:39:02.818Z,960.90
2018-04-13T07:40:02.873Z,960.88
2018-04-13T07:41:02.903Z,960.95
2018-04-13T07:42:02.951Z,960.97
2018-04-13T07:43:03.002Z,960.92
2018-04-13T07:44:03.052Z,960.96
2018-04-13T07:45:03.198Z,960.96
2018-04-13T07:46:03.157Z,960.97
2018-04-13T07:47:03.206Z,960.96
2018-04-13T07:48:03.259Z,960.94
2018-04-13T07:49:03.309Z,960.96
2018-04-13T07:50:03.387Z,961.03
2018-04-13T07:51:03.415Z,961.00
2018-04-13T07:52:03.467Z,961.04
2018-04-13T07:53:03.519Z,961.03
2018-04-13T07:54:03.575Z,961.06
2018-04-13T07:55:03.654Z,961.08
2018-04-13T07:56:03.676Z,961.18
2018-04-13T07:57:03.727Z,961.14
2018-04-13T07:58:03.793Z,961.19
2018-04-13T07:59:03.835Z,961.28
2018-04-13T08:00:03.907Z,961.25
2018-04-13T08:01:03.937Z,961.21
2018-04-13T08:02:03.986Z,961.28
2018-04-13T08:03:04.040Z,961.31
2018-04-13T08:04:04.090Z,961.29
2018-04-13T08:05:04.180Z,961.32
2018-04-13T08:06:04.194Z,961.36
2018-04-13T08:07:04.245Z,961.34
2018-04-13T08:08:04.322Z,961.38
2018-04-13T08:09:04.359Z,961.39
2018-04-13T08:10:04.410Z,961.40
2018-04-13T08:11:04.479Z,961.42
2018-04-13T08:12:04.512Z,961.42
2018-04-13T08:13:04.562Z,961.48
2018-04-13T08:14:04.614Z,961.45
2018-04-13T08:15:04.664Z,961.45
2018-04-13T08:16:04.742Z,961.49
2018-04-13T08:17:04.771Z,961.45
2018-04-13T08:18:04.860Z,961.44
2018-04-13T08:19:04.877Z,961.48
2018-04-13T08:20:04.925Z,961.48
2018-04-13T08:21:05.005Z,961.45
2018-04-13T08:22:05.029Z,961.44
2018-04-13T08:23:05.081Z,961.52
2018-04-13T08:24:05.134Z,961.45
2018-04-13T08:25:05.210Z,961.44
2018-04-13T08:26:05.239Z,961.47
2018-04-13T08:27:05.315Z,961.48
2018-04-13T08:28:05.339Z,961.50
2018-04-13T08:29:05.393Z,961.53
2018-04-13T08:30:06.006Z,961.47
2018-04-13T08:31:05.496Z,961.47
2018-04-13T08:32:05.562Z,961.44
2018-04-13T08:33:05.601Z,961.46
2018-04-13T08:34:05.650Z,961.48
2018-04-13T08:35:05.725Z,961.46
2018-04-13T08:36:05.762Z,961.50
2018-04-13T08:37:05.806Z,961.52
2018-04-13T08:38:05.858Z,961.50
2018-04-13T08:39:05.908Z,961.52
2018-04-13T08:40:05.989Z,961.52
2018-04-13T08:41:06.014Z,961.57
2018-04-13T08:42:06.063Z,961.56
2018-04-13T08:43:06.117Z,961.61
2018-04-13T08:44:06.185Z,961.60
2018-04-13T08:45:06.251Z,961.55
2018-04-13T08:46:06.271Z,961.55
2018-04-13T08:47:06.320Z,961.55
2018-04-13T08:48:06.372Z,961.60
2018-04-13T08:49:06.568Z,961.59
2018-04-13T08:50:06.512Z,961.64
2018-04-13T08:51:06.525Z,961.65
2018-04-13T08:52:06.618Z,961.63
2018-04-13T08:53:06.633Z,961.62
2018-04-13T08:54:06.715Z,961.68
2018-04-13T08:55:06.770Z,961.63
2018-04-13T08:56:06.783Z,961.68
2018-04-13T08:57:06.835Z,961.72
2018-04-13T08:58:06.913Z,961.70
2018-04-13T08:59:06.937Z,961.68
2018-04-13T09:00:06.989Z,961.74
2018-04-13T09:01:07.040Z,961.73
2018-04-13T09:02:07.093Z,961.75
2018-04-13T09:03:07.170Z,961.75
2018-04-13T09:04:07.196Z,961.74
2018-04-13T09:05:07.256Z,961.75
2018-04-13T09:06:07.324Z,961.74
2018-04-13T09:07:07.351Z,961.73
2018-04-13T09:08:07.449Z,961.65
2018-04-13T09:09:07.466Z,961.79
2018-04-13T09:10:07.508Z,961.77
2018-04-13T09:11:07.559Z,961.80
2018-04-13T09:12:07.613Z,961.79
2018-04-13T09:13:07.696Z,961.77
2018-04-13T09:14:07.756Z,961.78
2018-04-13T09:15:07.767Z,961.79
2018-04-13T09:16:07.818Z,961.76
2018-04-13T09:17:07.870Z,961.83
2018-04-13T09:18:07.969Z,961.84
2018-04-13T09:19:07.980Z,961.76
2018-04-13T09:20:08.034Z,961.78
2018-04-13T09:21:08.079Z,961.81
2018-04-13T09:22:08.132Z,961.86
2018-04-13T09:23:08.211Z,961.82
2018-04-13T09:24:08.238Z,961.83
2018-04-13T09:25:08.287Z,961.86
2018-04-13T09:26:08.340Z,961.94
2018-04-13T09:27:08.392Z,961.91
2018-04-13T09:28:08.479Z,961.94
2018-04-13T09:29:08.537Z,961.95
2018-04-13T09:30:08.552Z,961.99
2018-04-13T09:31:08.603Z,961.94
2018-04-13T09:32:08.657Z,961.92
2018-04-13T09:33:08.709Z,962.04
2018-04-13T09:34:08.786Z,962.05
2018-04-13T09:35:08.813Z,962.07
2018-04-13T09:36:08.867Z,962.01
2018-04-13T09:37:08.924Z,962.13
2018-04-13T09:38:08.973Z,962.13
2018-04-13T09:39:09.052Z,962.08
2018-04-13T09:40:09.080Z,962.10
2018-04-13T09:41:09.131Z,962.12
2018-04-13T09:42:09.184Z,962.15
2018-04-13T09:43:09.235Z,962.18
2018-04-13T09:44:09.314Z,962.16
2018-04-13T09:45:09.350Z,962.18
2018-04-13T09:46:09.421Z,962.23
2018-04-13T09:47:09.469Z,962.18
2018-04-13T09:48:09.506Z,962.28
2018-04-13T09:49:09.553Z,962.28
2018-04-13T09:50:09.607Z,962.28
2018-04-13T09:51:09.682Z,962.31
2018-04-13T09:52:09.713Z,962.33
2018-04-13T09:53:09.771Z,962.29
2018-04-13T09:54:09.816Z,962.37
2018-04-13T09:55:09.876Z,962.41
2018-04-13T09:56:09.960Z,962.43
2018-04-13T09:57:09.980Z,962.43
2018-04-13T09:58:10.030Z,962.44
2018-04-13T09:59:10.083Z,962.51
2018-04-13T10:00:10.132Z,962.51
2018-04-13T10:01:10.213Z,962.46
2018-04-13T10:02:10.261Z,962.50
2018-04-13T10:03:10.292Z,962.44
2018-04-13T10:04:10.347Z,962.53
2018-04-13T10:05:10.395Z,962.51
2018-04-13T10:06:10.446Z,962.61
2018-04-13T10:07:10.523Z,962.58
2018-04-13T10:08:10.554Z,962.64
2018-04-13T10:09:10.606Z,962.62
2018-04-13T10:10:10.658Z,962.73
2018-04-13T10:11:10.709Z,962.69
2018-04-13T10:12:10.786Z,962.68
2018-04-13T10:13:10.844Z,962.64
2018-04-13T10:14:10.864Z,962.66
2018-04-13T10:15:10.918Z,962.69
2018-04-13T10:16:10.971Z,962.71
2018-04-13T10:17:11.021Z,962.64
2018-04-13T10:18:11.098Z,962.74
2018-04-13T10:19:11.124Z,962.78
2018-04-13T10:20:11.178Z,962.77
2018-04-13T10:21:11.233Z,962.75
2018-04-13T10:22:11.297Z,962.83
2018-04-13T10:23:11.355Z,962.83
2018-04-13T10:24:11.390Z,962.81
2018-04-13T10:25:11.435Z,962.77
2018-04-13T10:26:11.487Z,962.82
2018-04-13T10:27:11.541Z,962.81
2018-04-13T10:28:11.624Z,962.83
2018-04-13T10:29:11.668Z,962.85
2018-04-13T10:30:11.694Z,962.91
2018-04-13T10:31:11.751Z,962.91
2018-04-13T10:32:11.803Z,962.88
2018-04-13T10:33:11.853Z,962.83
2018-04-13T10:34:11.929Z,962.86
2018-04-13T10:35:11.958Z,962.90
2018-04-13T10:36:12.018Z,962.90
2018-04-13T10:37:12.062Z,962.90
2018-04-13T10:38:12.116Z,962.91
2018-04-13T10:39:12.200Z,962.99
2018-04-13T10:40:12.223Z,962.99
2018-04-13T10:41:12.273Z,962.97
2018-04-13T10:42:12.327Z,962.99
2018-04-13T10:43:12.380Z,963.06
2018-04-13T10:44:12.453Z,963.02
2018-04-13T10:45:12.507Z,963.11
2018-04-13T10:46:12.539Z,963.01
2018-04-13T10:47:12.593Z,963.09
2018-04-13T10:48:12.642Z,963.07
2018-04-13T10:49:12.699Z,963.14
2018-04-13T10:50:12.791Z,963.16
2018-04-13T10:51:12.805Z,963.16
2018-04-13T10:52:12.854Z,963.08
2018-04-13T10:53:12.907Z,963.20
2018-04-13T10:54:12.962Z,963.22
2018-04-13T10:55:13.052Z,963.23
2018-04-13T10:56:13.103Z,963.24
2018-04-13T10:57:13.132Z,963.29
2018-04-13T10:58:13.173Z,963.34
2018-04-13T10:59:13.228Z,963.38
2018-04-13T11:00:13.283Z,963.31
2018-04-13T11:01:13.359Z,963.40
2018-04-13T11:02:13.392Z,963.34
2018-04-13T11:03:13.440Z,963.35
2018-04-13T11:04:13.496Z,963.41
2018-04-13T11:05:13.548Z,963.43
2018-04-13T11:06:13.625Z,963.43
2018-04-13T11:07:13.655Z,963.43
2018-04-13T11:08:13.716Z,963.43
2018-04-13T11:09:13.767Z,963.38
2018-04-13T11:10:13.817Z,963.45
2018-04-13T11:11:13.892Z,963.44
2018-04-13T11:12:13.955Z,963.51
2018-04-13T11:13:13.974Z,963.57
2018-04-13T11:14:14.028Z,963.55
2018-04-13T11:15:14.084Z,963.54
2018-04-13T11:16:14.144Z,963.56
2018-04-13T11:17:14.227Z,963.59
2018-04-13T11:18:14.244Z,963.69
2018-04-13T11:19:14.297Z,963.64
2018-04-13T11:20:14.356Z,963.65
2018-04-13T11:21:14.404Z,963.67
2018-04-13T11:22:14.499Z,963.68
2018-04-13T11:23:14.511Z,963.68
2018-04-13T11:24:14.573Z,963.68
2018-04-13T11:25:14.618Z,963.69
2018-04-13T11:26:14.675Z,963.75
2018-04-13T11:27:14.755Z,963.79
2018-04-13T11:28:14.805Z,963.63
2018-04-13T11:29:14.833Z,963.74
2018-04-13T11:30:14.888Z,963.80
2018-04-13T11:31:14.944Z,963.90
2018-04-13T11:32:14.999Z,963.88
2018-04-13T11:33:15.087Z,963.88
2018-04-13T11:34:15.108Z,963.97
2018-04-13T11:35:15.169Z,963.96
2018-04-13T11:36:15.218Z,964.01
2018-04-13T11:37:15.276Z,963.98
2018-04-13T11:38:15.352Z,964.02
2018-04-13T11:39:15.385Z,964.01
2018-04-13T11:40:15.443Z,964.02
2018-04-13T11:41:15.498Z,964.07
2018-04-13T11:42:15.553Z,963.93
2018-04-13T11:43:15.642Z,964.02
2018-04-13T11:44:15.663Z,963.97
2018-04-13T11:45:15.717Z,964.05
2018-04-13T11:46:15.773Z,964.03
2018-04-13T11:47:15.829Z,964.10
2018-04-13T11:48:15.922Z,964.09
2018-04-13T11:49:15.940Z,964.08
2018-04-13T11:50:15.996Z,964.17
2018-04-13T11:51:16.054Z,964.16
2018-04-13T11:52:16.109Z,964.18
2018-04-13T11:53:16.184Z,964.20
2018-04-13T11:54:16.243Z,964.13
2018-04-13T11:55:16.311Z,964.21
2018-04-13T11:56:16.330Z,964.21
2018-04-13T11:57:16.387Z,964.18
2018-04-13T11:58:16.451Z,964.21
2018-04-13T11:59:16.534Z,964.25
2018-04-13T12:00:16.553Z,964.25
2018-04-13T12:01:16.612Z,964.22
2018-04-13T12:02:16.665Z,964.21
2018-04-13T12:03:16.727Z,964.27
2018-04-13T12:04:16.806Z,964.28
2018-04-13T12:05:16.857Z,964.35
2018-04-13T12:06:16.893Z,964.28
2018-04-13T12:07:16.947Z,964.36
2018-04-13T12:08:17.008Z,964.30
2018-04-13T12:09:17.059Z,964.34
2018-04-13T12:10:17.139Z,964.39
2018-04-13T12:11:17.173Z,964.41
2018-04-13T12:12:17.232Z,964.43
2018-04-13T12:13:17.286Z,964.43
2018-04-13T12:14:17.343Z,964.45
2018-04-13T12:15:17.426Z,964.42
2018-04-13T12:16:17.458Z,964.44
2018-04-13T12:17:17.521Z,964.45
2018-04-13T12:18:17.570Z,964.50
2018-04-13T12:19:17.637Z,964.50
2018-04-13T12:20:17.712Z,964.45
2018-04-13T12:21:17.744Z,964.58
2018-04-13T12:22:17.801Z,964.52
2018-04-13T12:23:17.861Z,964.58
2018-04-13T12:24:17.916Z,964.56
2018-04-13T12:25:18.001Z,964.60
2018-04-13T12:26:18.032Z,964.66
2018-04-13T12:27:18.117Z,964.64
2018-04-13T12:28:18.145Z,964.66
2018-04-13T12:29:18.203Z,964.65
2018-04-13T12:30:18.261Z,964.65
2018-04-13T12:31:18.356Z,964.63
2018-04-13T12:32:18.400Z,964.65
2018-04-13T12:33:18.430Z,964.72
2018-04-13T12:34:18.492Z,964.77
2018-04-13T12:35:18.547Z,964.82
2018-04-13T12:36:18.607Z,964.81
2018-04-13T12:37:18.688Z,964.85
2018-04-13T12:38:18.740Z,964.84
2018-04-13T12:39:18.778Z,964.90
2018-04-13T12:40:18.834Z,964.91
2018-04-13T12:41:18.897Z,964.91
2018-04-13T12:42:30.599Z,964.93
2018-04-13T12:43:19.010Z,964.93
2018-04-13T12:44:19.066Z,964.95
2018-04-13T12:45:19.124Z,964.99
2018-04-13T12:46:19.912Z,964.98
2018-04-13T12:47:19.270Z,965.01
2018-04-13T12:48:19.301Z,965.02
2018-04-13T12:49:19.358Z,965.00
2018-04-13T12:50:19.416Z,965.01
2018-04-13T12:51:19.483Z,965.10
2018-04-13T12:52:19.554Z,965.04
2018-04-13T12:53:19.592Z,965.07
2018-04-13T12:54:19.712Z,965.09
2018-04-13T12:55:19.797Z,965.12
2018-04-13T12:56:19.781Z,965.04
2018-04-13T12:57:19.820Z,965.17
2018-04-13T12:58:19.882Z,965.14
2018-04-13T12:59:19.937Z,965.15
2018-04-13T13:00:20.022Z,965.18
2018-04-13T13:01:20.059Z,965.21
2018-04-13T13:02:20.116Z,965.17
2018-04-13T13:03:20.170Z,965.19
2018-04-13T13:04:20.231Z,965.17
2018-04-13T13:05:20.321Z,965.23
2018-04-13T13:06:20.350Z,965.21
2018-04-13T13:07:20.407Z,965.29
2018-04-13T13:08:20.465Z,965.23
2018-04-13T13:09:20.528Z,965.24
2018-04-13T13:10:20.624Z,965.30
2018-04-13T13:11:20.647Z,965.30
2018-04-13T13:12:20.703Z,965.29
2018-04-13T13:13:20.762Z,965.28
2018-04-13T13:14:20.821Z,965.30
2018-04-13T13:15:20.919Z,965.31
2018-04-13T13:16:20.940Z,965.33
2018-04-13T13:17:21.002Z,965.31
2018-04-13T13:18:21.056Z,965.33
2018-04-13T13:19:21.119Z,965.39
2018-04-13T13:20:21.201Z,965.34
2018-04-13T13:21:21.260Z,965.38
2018-04-13T13:22:21.298Z,965.36
2018-04-13T13:23:21.355Z,965.34
2018-04-13T13:24:21.416Z,965.39
2018-04-13T13:25:21.474Z,965.43
2018-04-13T13:26:21.559Z,965.42
2018-04-13T13:27:21.593Z,965.43
2018-04-13T13:28:21.652Z,965.41
2018-04-13T13:29:21.717Z,965.40
2018-04-13T13:30:21.771Z,965.44
2018-04-13T13:31:21.854Z,965.46
2018-04-13T13:32:21.894Z,965.41
2018-04-13T13:33:21.949Z,965.44
2018-04-13T13:34:22.012Z,965.44
2018-04-13T13:35:22.073Z,965.51
2018-04-13T13:36:22.158Z,965.47
2018-04-13T13:37:22.192Z,965.50
2018-04-13T13:38:22.252Z,965.48
2018-04-13T13:39:22.309Z,965.52
2018-04-13T13:40:22.370Z,965.48
2018-04-13T13:41:22.460Z,965.52
2018-04-13T13:42:22.495Z,965.52
2018-04-13T13:43:22.549Z,965.50
2018-04-13T13:44:22.614Z,965.52
2018-04-13T13:45:22.680Z,965.45
2018-04-13T13:46:22.783Z,965.50
2018-04-13T13:47:22.794Z,965.51
2018-04-13T13:48:22.849Z,965.51
2018-04-13T13:49:22.912Z,965.48
2018-04-13T13:50:22.978Z,965.51
2018-04-13T13:51:23.079Z,965.54
2018-04-13T13:52:23.093Z,965.53
2018-04-13T13:53:23.155Z,965.51
2018-04-13T13:54:23.211Z,965.49
2018-04-13T13:55:23.276Z,965.48
2018-04-13T13:56:23.357Z,965.49
2018-04-13T13:57:23.397Z,965.48
2018-04-13T13:58:23.464Z,965.42
2018-04-13T13:59:23.546Z,965.46
2018-04-13T14:00:23.577Z,965.49
2018-04-13T14:01:23.636Z,965.46
2018-04-13T14:02:23.749Z,965.49
2018-04-13T14:03:23.757Z,965.49
2018-04-13T14:04:23.826Z,965.49
2018-04-13T14:05:23.881Z,965.46
2018-04-13T14:06:23.938Z,965.47
2018-04-13T14:07:24.024Z,965.43
2018-04-13T14:08:24.060Z,965.46
2018-04-13T14:09:24.165Z,965.49
2018-04-13T14:10:24.186Z,965.46
2018-04-13T14:11:24.245Z,965.48
2018-04-13T14:12:24.303Z,965.50
2018-04-13T14:13:24.362Z,965.48
2018-04-13T14:14:24.466Z,965.52
2018-04-13T14:15:24.485Z,965.50
2018-04-13T14:16:24.548Z,965.53
2018-04-13T14:17:24.609Z,965.54
2018-04-13T14:18:24.697Z,965.59
2018-04-13T14:19:24.731Z,965.59
2018-04-13T14:20:24.804Z,965.60
2018-04-13T14:21:24.858Z,965.62
2018-04-13T14:22:24.917Z,965.63
2018-04-13T14:23:25.003Z,965.66
2018-04-13T14:24:25.041Z,965.63
2018-04-13T14:25:25.128Z,965.63
2018-04-13T14:26:25.165Z,965.66
2018-04-13T14:27:25.233Z,965.67
2018-04-13T14:28:25.295Z,965.69
2018-04-13T14:29:25.364Z,965.77
2018-04-13T14:30:25.490Z,965.74
2018-04-13T14:31:25.478Z,965.67
2018-04-13T14:32:25.551Z,965.74
2018-04-13T14:33:25.606Z,965.72
2018-04-13T14:34:25.693Z,965.74
2018-04-13T14:35:25.767Z,965.76
2018-04-13T14:36:25.795Z,965.69
2018-04-13T14:37:25.857Z,965.78
2018-04-13T14:38:25.923Z,965.82
2018-04-13T14:39:25.992Z,965.81
2018-04-13T14:40:26.072Z,965.88
2018-04-13T14:41:26.107Z,965.88
2018-04-13T14:42:26.170Z,965.88
2018-04-13T14:43:26.234Z,965.85
2018-04-13T14:44:26.296Z,965.87
2018-04-13T14:45:26.382Z,965.86
2018-04-13T14:46:26.421Z,965.83
2018-04-13T14:47:26.486Z,965.80
2018-04-13T14:48:26.548Z,965.84
2018-04-13T14:49:26.609Z,965.87
2018-04-13T14:50:26.695Z,965.90
2018-04-13T14:51:26.737Z,965.85
2018-04-13T14:52:26.803Z,965.87
2018-04-13T14:53:26.864Z,965.86
2018-04-13T14:54:26.927Z,965.92
2018-04-13T14:55:27.010Z,965.97
2018-04-13T14:56:27.054Z,965.98
2018-04-13T14:57:27.141Z,965.98
2018-04-13T14:58:27.179Z,965.95
2018-04-13T14:59:27.242Z,965.98
2018-04-13T15:00:27.304Z,965.92
2018-04-13T15:01:27.365Z,965.99
2018-04-13T15:02:27.452Z,966.00
2018-04-13T15:03:27.502Z,966.03
2018-04-13T15:04:27.556Z,965.99
2018-04-13T15:05:27.619Z,966.02
2018-04-13T15:06:27.688Z,966.00
2018-04-13T15:07:27.778Z,966.05
2018-04-13T15:08:27.804Z,966.09
2018-04-13T15:09:27.871Z,965.98
2018-04-13T15:10:27.930Z,966.03
2018-04-13T15:11:27.996Z,966.04
2018-04-13T15:12:28.079Z,966.01
2018-04-13T15:13:28.145Z,966.08
2018-04-13T15:14:28.185Z,966.11
2018-04-13T15:15:28.250Z,966.12
2018-04-13T15:16:28.313Z,966.17
2018-04-13T15:17:28.373Z,966.19
2018-04-13T15:18:28.463Z,966.25
2018-04-13T15:19:28.528Z,966.28
2018-04-13T15:20:28.563Z,966.36
2018-04-13T15:21:28.627Z,966.42
2018-04-13T15:22:28.693Z,966.60
2018-04-13T15:23:28.756Z,966.72
2018-04-13T15:24:28.861Z,966.83
2018-04-13T15:25:28.883Z,967.12
2018-04-13T15:26:28.948Z,967.20
2018-04-13T15:27:29.011Z,967.21
2018-04-13T15:28:29.078Z,967.24
2018-04-13T15:29:29.164Z,967.00
2018-04-13T15:30:29.204Z,966.73
2018-04-13T15:31:29.270Z,966.59
2018-04-13T15:32:29.332Z,966.70
2018-04-13T15:33:29.397Z,966.72
2018-04-13T15:34:29.483Z,966.60
2018-04-13T15:35:29.549Z,966.54
2018-04-13T15:36:29.595Z,966.65
2018-04-13T15:37:29.653Z,966.63
2018-04-13T15:38:29.717Z,966.60
2018-04-13T15:39:29.781Z,966.55
2018-04-13T15:40:29.887Z,966.53
2018-04-13T15:41:29.908Z,966.58
2018-04-13T15:42:29.972Z,966.57
2018-04-13T15:43:30.040Z,966.56
2018-04-13T15:44:30.103Z,966.49
2018-04-13T15:45:30.190Z,966.48
2018-04-13T15:46:30.263Z,966.50
2018-04-13T15:47:30.294Z,966.49
2018-04-13T15:48:30.362Z,966.51
2018-04-13T15:49:30.420Z,966.48
2018-04-13T15:50:30.487Z,966.46
2018-04-13T15:51:30.616Z,966.50
2018-04-13T15:52:30.613Z,966.48
2018-04-13T15:53:30.676Z,966.48
2018-04-13T15:54:30.747Z,966.47
2018-04-13T15:55:30.805Z,966.48
2018-04-13T15:56:30.911Z,966.53
2018-04-13T15:57:30.931Z,966.50
2018-04-13T15:58:30.998Z,966.52
2018-04-13T15:59:31.060Z,966.53
2018-04-13T16:00:31.123Z,966.58
2018-04-13T16:01:31.213Z,966.62
2018-04-13T16:02:31.283Z,966.66
2018-04-13T16:03:31.317Z,966.69
2018-04-13T16:04:31.382Z,966.65
2018-04-13T16:05:31.444Z,966.57
2018-04-13T16:06:31.507Z,966.50
2018-04-13T16:07:31.609Z,966.49
2018-04-13T16:08:31.635Z,966.45
2018-04-13T16:09:31.699Z,966.49
2018-04-13T16:10:31.762Z,966.52
2018-04-13T16:11:31.821Z,966.56
2018-04-13T16:12:31.918Z,966.57
2018-04-13T16:13:31.946Z,966.63
2018-04-13T16:14:32.007Z,966.69
2018-04-13T16:15:32.072Z,966.70
2018-04-13T16:16:32.127Z,966.74
2018-04-13T16:17:32.209Z,966.72
2018-04-13T16:18:32.270Z,966.61
2018-04-13T16:19:32.302Z,966.67
2018-04-13T16:20:32.367Z,966.60
2018-04-13T16:21:32.417Z,966.68
2018-04-13T16:22:32.478Z,966.63
2018-04-13T16:23:32.562Z,966.69
2018-04-13T16:24:32.591Z,966.70
2018-04-13T16:25:32.648Z,966.76
2018-04-13T16:26:32.714Z,966.80
2018-04-13T16:27:32.760Z,966.80
2018-04-13T16:28:32.845Z,966.81
2018-04-13T16:29:32.872Z,966.78
2018-04-13T16:30:32.923Z,966.89
2018-04-13T16:31:32.976Z,966.88
2018-04-13T16:32:33.035Z,966.90
2018-04-13T16:33:33.129Z,966.91
2018-04-13T16:34:33.139Z,966.93
2018-04-13T16:35:33.197Z,966.93
2018-04-13T16:36:33.252Z,966.92
2018-04-13T16:37:33.303Z,966.91
2018-04-13T16:38:33.380Z,966.91
2018-04-13T16:39:33.410Z,966.93
2018-04-13T16:40:33.488Z,966.97
2018-04-13T16:41:33.517Z,966.94
2018-04-13T16:42:33.570Z,967.04
2018-04-13T16:43:33.621Z,966.98
2018-04-13T16:44:33.674Z,967.03
2018-04-13T16:45:33.755Z,967.00
2018-04-13T16:46:33.780Z,967.02
2018-04-13T16:47:33.834Z,967.02
2018-04-13T16:48:33.884Z,967.00
2018-04-13T16:49:33.975Z,967.04
2018-04-13T16:50:34.037Z,967.04
2018-04-13T16:51:34.040Z,967.00
2018-04-13T16:52:34.100Z,967.04
2018-04-13T16:53:34.143Z,967.00
2018-04-13T16:54:34.222Z,967.06
2018-04-13T16:55:34.254Z,967.04
2018-04-13T16:56:34.329Z,967.08
2018-04-13T16:57:34.352Z,967.08
2018-04-13T16:58:34.406Z,967.09
2018-04-13T16:59:34.457Z,967.14
2018-04-13T17:00:34.511Z,967.13
2018-04-13T17:01:34.582Z,967.20
2018-04-13T17:02:34.610Z,967.17
2018-04-13T17:03:34.666Z,967.18
2018-04-13T17:04:34.718Z,967.25
2018-04-13T17:05:34.767Z,967.21
2018-04-13T17:06:34.852Z,967.19
2018-04-13T17:07:34.872Z,967.26
2018-04-13T17:08:34.922Z,967.30
2018-04-13T17:09:34.971Z,967.29
2018-04-13T17:10:35.024Z,967.32
2018-04-13T17:11:35.101Z,967.34
2018-04-13T17:12:35.151Z,967.34
2018-04-13T17:13:35.180Z,967.35
2018-04-13T17:14:35.232Z,967.37
2018-04-13T17:15:35.282Z,967.35
2018-04-13T17:16:35.372Z,967.41
2018-04-13T17:17:35.384Z,967.45
2018-04-13T17:18:35.436Z,967.45
2018-04-13T17:19:35.491Z,967.46
2018-04-13T17:20:35.540Z,967.44
2018-04-13T17:21:35.615Z,967.39
2018-04-13T17:22:35.662Z,967.43
2018-04-13T17:23:35.692Z,967.45
2018-04-13T17:24:35.743Z,967.44
2018-04-13T17:25:35.793Z,967.45
2018-04-13T17:26:35.847Z,967.44
2018-04-13T17:27:35.922Z,967.39
2018-04-13T17:28:35.975Z,967.44
2018-04-13T17:29:35.995Z,967.44
2018-04-13T17:30:36.046Z,967.46
2018-04-13T17:31:36.098Z,967.43
2018-04-13T17:32:36.174Z,967.45
2018-04-13T17:33:36.232Z,967.42
2018-04-13T17:34:36.271Z,967.47
2018-04-13T17:35:36.303Z,967.47
2018-04-13T17:36:36.351Z,967.47
2018-04-13T17:37:36.404Z,967.49
2018-04-13T17:38:36.484Z,967.50
2018-04-13T17:39:36.504Z,967.48
2018-04-13T17:40:36.552Z,967.51
2018-04-13T17:41:36.603Z,967.53
2018-04-13T17:42:36.651Z,967.53
2018-04-13T17:43:36.727Z,967.55
2018-04-13T17:44:36.755Z,967.59
2018-04-13T17:45:36.834Z,967.56
2018-04-13T17:46:36.852Z,967.59
2018-04-13T17:47:36.902Z,967.58
2018-04-13T17:48:36.953Z,967.58
2018-04-13T17:49:37.035Z,967.60
2018-04-13T17:50:37.053Z,967.69
2018-04-13T17:51:37.104Z,967.63
2018-04-13T17:52:37.153Z,967.67
2018-04-13T17:53:37.207Z,967.72
2018-04-13T17:54:37.280Z,967.74
2018-04-13T17:55:37.304Z,967.82
2018-04-13T17:56:37.380Z,967.86
2018-04-13T17:57:37.404Z,967.84
2018-04-13T17:58:37.457Z,967.88
2018-04-13T17:59:37.504Z,967.93
2018-04-13T18:00:37.580Z,967.92
2018-04-13T18:01:37.607Z,967.97
2018-04-13T18:02:37.653Z,967.96
2018-04-13T18:03:37.703Z,968.01
2018-04-13T18:04:37.752Z,968.03
2018-04-13T18:05:37.826Z,968.03
2018-04-13T18:06:37.859Z,968.01
2018-04-13T18:07:37.899Z,968.02
2018-04-13T18:08:37.951Z,968.05
2018-04-13T18:09:38.001Z,968.04
2018-04-13T18:10:38.070Z,968.09
2018-04-13T18:11:38.100Z,968.06
2018-04-13T18:12:38.177Z,968.11
2018-04-13T18:13:38.194Z,968.16
2018-04-13T18:14:38.248Z,968.14
2018-04-13T18:15:38.330Z,968.15
2018-04-13T18:16:38.347Z,968.22
2018-04-13T18:17:38.393Z,968.27
2018-04-13T18:18:38.442Z,968.24
2018-04-13T18:19:38.493Z,968.27
2018-04-13T18:20:38.572Z,968.29
2018-04-13T18:21:40.267Z,968.35
2018-04-13T18:22:38.643Z,968.35
2018-04-13T18:23:38.689Z,968.35
2018-04-13T18:24:38.742Z,968.35
2018-04-13T18:25:38.820Z,968.32
2018-04-13T18:26:39.791Z,968.39
2018-04-13T18:27:38.889Z,968.39
2018-04-13T18:28:38.941Z,968.40
2018-04-13T18:29:38.986Z,968.42
2018-04-13T18:30:39.075Z,968.39
2018-04-13T18:31:39.083Z,968.41
2018-04-13T18:32:39.136Z,968.42
2018-04-13T18:33:39.181Z,968.48
2018-04-13T18:34:39.248Z,968.45
2018-04-13T18:35:39.305Z,968.51
2018-04-13T18:36:39.332Z,968.51
2018-04-13T18:37:39.377Z,968.50
2018-04-13T18:38:39.474Z,968.51
2018-04-13T18:39:39.478Z,968.51
2018-04-13T18:40:39.526Z,968.49
2018-04-13T18:41:39.576Z,968.51
2018-04-13T18:42:39.627Z,968.59
2018-04-13T18:43:39.704Z,968.59
2018-04-13T18:44:39.721Z,968.61
2018-04-13T18:45:39.772Z,968.64
2018-04-13T18:46:39.819Z,968.66
2018-04-13T18:47:39.870Z,968.67
2018-04-13T18:48:39.942Z,968.70
2018-04-13T18:49:39.971Z,968.74
2018-04-13T18:50:40.014Z,968.68
2018-04-13T18:51:40.095Z,968.76
2018-04-13T18:52:40.112Z,968.81
2018-04-13T18:53:40.161Z,968.81
2018-04-13T18:54:40.212Z,968.83
2018-04-13T18:55:40.260Z,968.85
2018-04-13T18:56:40.334Z,968.80
2018-04-13T18:57:40.359Z,968.85
2018-04-13T18:58:40.407Z,968.86
2018-04-13T18:59:40.456Z,968.91
2018-04-13T19:00:40.505Z,968.91
2018-04-13T19:01:40.595Z,968.93
2018-04-13T19:02:40.602Z,968.92
2018-04-13T19:03:41.568Z,968.97
2018-04-13T19:04:40.701Z,968.94
2018-04-13T19:05:40.752Z,968.96
2018-04-13T19:06:40.826Z,968.97
2018-04-13T19:07:40.856Z,969.00
2018-04-13T19:08:40.909Z,969.01
2018-04-13T19:09:40.946Z,968.97
2018-04-13T19:10:40.996Z,968.99
2018-04-13T19:11:41.069Z,968.98
2018-04-13T19:12:41.136Z,968.97
2018-04-13T19:13:41.140Z,968.98
2018-04-13T19:14:41.200Z,968.95
2018-04-13T19:15:41.245Z,968.98
2018-04-13T19:16:41.318Z,968.97
2018-04-13T19:17:41.338Z,969.01
2018-04-13T19:18:41.388Z,969.03
2018-04-13T19:19:41.439Z,969.04
2018-04-13T19:20:41.484Z,969.02
2018-04-13T19:21:41.565Z,969.01
2018-04-13T19:22:41.605Z,969.04
2018-04-13T19:23:41.641Z,969.03
2018-04-13T19:24:41.680Z,969.08
2018-04-13T19:25:41.729Z,969.07
2018-04-13T19:26:41.808Z,969.05
2018-04-13T19:27:41.856Z,969.03
2018-04-13T19:28:41.877Z,969.05
2018-04-13T19:29:41.924Z,969.02
2018-04-13T19:30:41.975Z,969.03
2018-04-13T19:31:42.034Z,969.02
2018-04-13T19:32:42.110Z,969.05
2018-04-13T19:33:42.119Z,969.06
2018-04-13T19:34:42.172Z,969.10
2018-04-13T19:35:42.222Z,969.13
2018-04-13T19:36:42.270Z,969.14
2018-04-13T19:37:42.341Z,969.18
2018-04-13T19:38:42.423Z,969.15
2018-04-13T19:39:42.416Z,969.16
2018-04-13T19:40:42.466Z,969.18
2018-04-13T19:41:42.511Z,969.23
2018-04-13T19:42:42.584Z,969.25
2018-04-13T19:43:42.613Z,969.27
2018-04-13T19:44:42.685Z,969.27
2018-04-13T19:45:42.708Z,969.24
2018-04-13T19:46:42.758Z,969.26
2018-04-13T19:47:42.803Z,969.27